createdAt,value
2018-07-31T00:13:38.541Z,21.80
2018-07-31T00:16:07.812Z,21.80
2018-07-31T00:18:37.139Z,21.70
2018-07-31T00:21:07.445Z,21.50
2018-07-31T00:23:37.634Z,21.50
2018-07-31T00:26:07.569Z,21.50
2018-07-31T00:28:36.838Z,21.50
2018-07-31T00:31:06.549Z,21.50
2018-07-31T00:36:05.071Z,21.50
2018-07-31T00:38:34.996Z,21.50
2018-07-31T00:41:04.264Z,21.60
2018-07-31T00:43:34.873Z,21.60
2018-07-31T00:46:04.125Z,21.50
2018-07-31T00:48:33.361Z,21.50
2018-07-31T01:08:59.086Z,21.00
2018-07-31T01:11:28.340Z,21.00
2018-07-31T01:13:58.926Z,21.00
2018-07-31T01:16:28.830Z,21.00
2018-07-31T01:18:58.125Z,21.00
2018-07-31T01:21:27.462Z,21.00
2018-07-31T01:42:02.687Z,20.70
2018-07-31T01:44:32.870Z,20.60
2018-07-31T01:47:03.148Z,20.50
2018-07-31T01:49:32.969Z,20.30
2018-07-31T01:52:03.326Z,20.30
2018-07-31T01:54:32.605Z,20.20
2018-07-31T01:57:01.909Z,20.20
2018-07-31T01:59:31.211Z,20.30
2018-07-31T02:02:00.551Z,20.40
2018-07-31T02:04:30.890Z,20.40
2018-07-31T02:09:29.235Z,20.30
2018-07-31T02:11:59.107Z,20.40
2018-07-31T02:14:29.349Z,20.30
2018-07-31T02:16:58.654Z,20.10
2018-07-31T02:19:27.892Z,20.10
2018-07-31T02:21:58.438Z,20.10
2018-07-31T02:42:32.194Z,20.10
2018-07-31T02:45:02.134Z,20.10
2018-07-31T02:47:31.479Z,20.10
2018-07-31T02:50:01.569Z,20.00
2018-07-31T02:52:30.847Z,20.10
2018-07-31T02:55:00.255Z,20.00
2018-07-31T02:57:30.727Z,20.00
2018-07-31T03:00:00.107Z,20.00
2018-07-31T03:20:32.811Z,19.70
2018-07-31T03:23:02.003Z,19.50
2018-07-31T03:25:31.374Z,19.30
2018-07-31T03:28:00.614Z,19.20
2018-07-31T03:30:31.129Z,19.20
2018-07-31T03:33:01.503Z,19.10
2018-07-31T03:35:31.552Z,19.20
2018-07-31T03:38:00.945Z,19.30
2018-07-31T03:40:30.304Z,19.40
2018-07-31T03:42:59.540Z,19.50
2018-07-31T03:45:29.994Z,19.50
2018-07-31T03:48:00.014Z,19.50
2018-07-31T03:50:29.831Z,19.30
2018-07-31T03:52:59.054Z,19.30
2018-07-31T03:55:29.359Z,19.20
2018-07-31T03:57:58.504Z,19.30
2018-07-31T04:00:27.736Z,19.40
2018-07-31T04:02:58.029Z,19.40
2018-07-31T04:05:28.570Z,19.30
2018-07-31T04:07:58.818Z,19.30
2018-07-31T04:10:28.634Z,19.30
2018-07-31T04:12:57.848Z,19.10
2018-07-31T04:15:27.107Z,19.10
2018-07-31T04:17:58.284Z,19.00
2018-07-31T04:20:28.279Z,19.10
2018-07-31T04:22:57.538Z,19.10
2018-07-31T04:25:27.396Z,19.10
2018-07-31T04:27:56.738Z,18.90
2018-07-31T04:30:25.958Z,18.90
2018-07-31T04:32:55.210Z,18.80
2018-07-31T04:35:24.442Z,18.70
2018-07-31T04:40:22.908Z,18.90
2018-07-31T04:42:52.399Z,19.00
2018-07-31T04:45:21.664Z,19.20
2018-07-31T04:47:50.975Z,19.10
2018-07-31T04:50:21.065Z,19.10
2018-07-31T05:10:56.169Z,19.40
2018-07-31T05:13:25.745Z,19.50
2018-07-31T05:15:55.015Z,19.50
2018-07-31T05:18:24.343Z,19.60
2018-07-31T05:20:53.699Z,19.60
2018-07-31T05:23:23.047Z,19.70
2018-07-31T05:25:52.378Z,19.70
2018-07-31T05:28:21.749Z,19.70
2018-07-31T05:30:51.151Z,19.80
2018-07-31T05:33:21.092Z,19.80
2018-07-31T05:35:50.439Z,19.80
2018-07-31T05:38:20.933Z,19.90
2018-07-31T05:43:20.133Z,20.00
2018-07-31T05:45:50.025Z,20.10
2018-07-31T05:48:19.294Z,20.20
2018-07-31T05:50:49.355Z,20.20
2018-07-31T06:11:21.088Z,20.80
2018-07-31T06:13:50.294Z,20.90
2018-07-31T06:16:19.537Z,21.00
2018-07-31T06:18:49.428Z,21.00
2018-07-31T06:21:18.742Z,21.10
2018-07-31T06:23:48.118Z,21.20
2018-07-31T06:26:18.356Z,21.20
2018-07-31T06:28:47.654Z,21.30
2018-07-31T06:31:17.749Z,21.30
2018-07-31T06:33:46.974Z,21.40
2018-07-31T06:36:16.893Z,21.40
2018-07-31T06:38:46.315Z,21.40
2018-07-31T06:59:12.370Z,21.70
2018-07-31T07:01:42.675Z,21.70
2018-07-31T07:04:12.724Z,21.80
2018-07-31T07:06:42.171Z,21.80
2018-07-31T07:09:12.868Z,21.90
2018-07-31T07:11:42.251Z,21.90
2018-07-31T07:14:13.054Z,22.00
2018-07-31T07:16:43.278Z,22.10
2018-07-31T07:19:12.585Z,22.20
2018-07-31T07:39:46.253Z,23.00
2018-07-31T07:42:15.469Z,23.10
2018-07-31T07:44:44.705Z,23.20
2018-07-31T07:49:43.806Z,23.40
2018-07-31T07:52:13.093Z,23.40
2018-07-31T07:54:42.281Z,23.50
2018-07-31T07:57:12.473Z,23.50
2018-07-31T07:59:41.700Z,23.60
2018-07-31T08:02:11.048Z,23.60
2018-07-31T08:04:40.854Z,23.70
2018-07-31T08:07:10.074Z,23.70
2018-07-31T08:09:39.539Z,23.80
2018-07-31T08:12:08.953Z,23.80
2018-07-31T08:14:38.215Z,23.80
2018-07-31T08:17:07.535Z,23.90
2018-07-31T08:19:38.147Z,24.00
2018-07-31T08:22:07.474Z,24.10
2018-07-31T08:42:40.919Z,24.50
2018-07-31T08:45:10.258Z,24.50
2018-07-31T09:23:47.196Z,25.90
2018-07-31T09:44:20.732Z,26.30
2018-07-31T09:46:50.682Z,26.50
2018-07-31T10:07:23.869Z,27.10
2018-07-31T10:09:53.145Z,27.10
2018-07-31T10:12:22.361Z,27.20
2018-07-31T10:14:51.695Z,27.30
2018-07-31T10:17:21.695Z,27.40
2018-07-31T10:19:50.994Z,27.30
2018-07-31T10:22:20.937Z,27.40
2018-07-31T10:42:47.725Z,28.40
2018-07-31T10:45:16.966Z,28.30
2018-07-31T10:47:46.950Z,28.40
2018-07-31T10:50:16.325Z,28.40
2018-07-31T11:10:51.821Z,28.80
2018-07-31T11:31:26.323Z,29.30
2018-07-31T11:51:59.198Z,30.30
2018-07-31T11:54:29.149Z,30.30
2018-07-31T11:56:58.357Z,30.30
2018-07-31T11:59:28.824Z,30.40
2018-07-31T12:01:58.077Z,30.40
2018-07-31T12:04:27.572Z,30.50
2018-07-31T12:06:56.892Z,30.50
2018-07-31T12:09:26.295Z,30.50
2018-07-31T12:11:57.174Z,30.60
2018-07-31T12:32:31.982Z,31.20
2018-07-31T12:53:07.382Z,31.80
2018-07-31T12:55:37.495Z,32.00
2018-07-31T12:58:08.273Z,32.10
2018-07-31T13:00:38.282Z,32.20
2018-07-31T13:03:07.473Z,32.40
2018-07-31T13:05:37.385Z,32.60
2018-07-31T13:08:07.358Z,32.70
2018-07-31T13:10:36.702Z,33.00
2018-07-31T13:13:05.981Z,33.10
2018-07-31T13:33:32.270Z,34.00
2018-07-31T13:36:02.986Z,34.20
2018-07-31T13:38:32.297Z,34.40
2018-07-31T13:59:14.127Z,36.80
2018-07-31T14:01:43.383Z,37.40
2018-07-31T14:04:12.654Z,38.00
2018-07-31T14:06:41.954Z,38.30
2018-07-31T14:09:11.740Z,38.80
2018-07-31T14:11:41.258Z,39.20
2018-07-31T14:32:16.358Z,40.70
2018-07-31T14:34:45.561Z,40.80
2018-07-31T14:37:14.786Z,40.90
2018-07-31T14:39:45.138Z,41.20
2018-07-31T14:42:14.592Z,41.00
2018-07-31T14:44:44.917Z,40.90
2018-07-31T14:47:14.092Z,40.80
2018-07-31T14:49:43.422Z,40.80
2018-07-31T14:52:12.701Z,40.90
2018-07-31T14:54:41.968Z,41.10
2018-07-31T15:15:15.904Z,41.10
2018-07-31T15:17:46.137Z,41.50
2018-07-31T15:20:15.328Z,41.30
2018-07-31T15:22:45.129Z,41.70
2018-07-31T15:25:14.391Z,41.50
2018-07-31T15:27:43.628Z,41.70
2018-07-31T15:30:13.286Z,42.30
2018-07-31T15:32:43.062Z,42.00
2018-07-31T15:35:12.418Z,42.30
2018-07-31T15:37:43.637Z,41.80
2018-07-31T15:40:12.997Z,42.40
2018-07-31T15:42:42.278Z,41.50
2018-07-31T15:45:12.666Z,41.50
2018-07-31T16:05:47.129Z,39.70
2018-07-31T16:08:16.644Z,39.00
2018-07-31T16:10:46.094Z,38.30
2018-07-31T16:13:15.409Z,37.90
2018-07-31T16:15:45.269Z,37.50
2018-07-31T16:18:14.472Z,37.20
2018-07-31T16:20:43.678Z,36.80
2018-07-31T16:23:13.687Z,36.40
2018-07-31T16:25:43.963Z,36.10
2018-07-31T16:28:13.265Z,35.80
2018-07-31T16:30:43.889Z,35.60
2018-07-31T16:51:17.728Z,34.50
2018-07-31T16:53:46.937Z,34.40
2018-07-31T16:56:17.389Z,34.40
2018-07-31T16:58:48.684Z,34.30
2018-07-31T17:19:23.706Z,33.20
2018-07-31T17:39:58.454Z,32.60
2018-07-31T17:42:27.749Z,32.50
2018-07-31T18:03:02.426Z,31.60
2018-07-31T18:08:02.132Z,31.30
2018-07-31T18:10:32.335Z,31.10
2018-07-31T18:13:02.251Z,30.80
2018-07-31T18:15:31.736Z,30.70
2018-07-31T18:18:01.053Z,30.60
2018-07-31T18:38:35.039Z,29.60
2018-07-31T18:41:04.574Z,29.50
2018-07-31T18:43:33.770Z,29.30
2018-07-31T18:46:03.257Z,29.40
2018-07-31T18:48:32.549Z,29.30
2018-07-31T18:51:01.778Z,29.40
2018-07-31T18:53:31.134Z,29.30
2018-07-31T18:56:00.312Z,29.20
2018-07-31T18:58:29.586Z,29.10
2018-07-31T19:00:58.834Z,29.00
2018-07-31T19:03:28.243Z,29.00
2018-07-31T19:05:58.154Z,28.80
2018-07-31T19:08:27.578Z,28.60
2018-07-31T19:29:01.980Z,28.00
2018-07-31T19:31:33.073Z,28.00
2018-07-31T19:34:03.199Z,27.90
2018-07-31T19:36:32.469Z,27.90
2018-07-31T19:39:01.776Z,27.80
2018-07-31T19:41:31.053Z,27.80
2018-07-31T19:44:00.356Z,27.90
2018-07-31T19:46:29.653Z,28.00
2018-07-31T20:07:03.160Z,28.30
2018-07-31T20:09:32.387Z,28.20
2018-07-31T20:12:01.791Z,28.10
2018-07-31T20:14:31.060Z,28.10
2018-07-31T20:17:01.683Z,28.10
2018-07-31T20:19:30.923Z,28.10
2018-07-31T20:22:00.406Z,28.10
2018-07-31T20:42:35.662Z,27.30
2018-07-31T20:45:06.878Z,27.20
2018-07-31T20:47:36.244Z,27.10
2018-07-31T20:50:05.695Z,26.90
2018-07-31T21:10:39.713Z,26.20
2018-07-31T21:13:09.432Z,26.00
2018-07-31T21:15:38.694Z,26.00
2018-07-31T21:18:08.734Z,26.00
2018-07-31T21:20:38.038Z,26.00
2018-07-31T21:23:08.091Z,26.00
2018-07-31T21:25:37.292Z,25.90
2018-07-31T21:28:06.713Z,25.90
2018-07-31T21:30:35.954Z,25.90
2018-07-31T21:33:06.063Z,25.90
2018-07-31T21:35:35.279Z,25.90
2018-07-31T21:38:04.506Z,25.80
2018-07-31T21:40:34.446Z,25.80
2018-07-31T21:43:03.760Z,25.70
2018-07-31T21:45:33.228Z,25.70
2018-07-31T21:48:02.727Z,25.60
2018-07-31T21:50:32.433Z,25.60
2018-07-31T21:53:02.391Z,25.50
2018-07-31T21:55:31.653Z,25.50
2018-07-31T21:58:00.958Z,25.40
2018-07-31T22:00:37.427Z,25.40
2018-07-31T22:03:07.074Z,25.40
2018-07-31T22:05:36.300Z,25.40
2018-07-31T22:08:06.133Z,25.40
2018-07-31T22:10:35.466Z,25.30
2018-07-31T22:13:04.790Z,25.30
2018-07-31T22:15:35.622Z,25.30
2018-07-31T22:36:10.000Z,25.20
2018-07-31T22:38:39.208Z,25.10
2018-07-31T22:41:08.432Z,25.10
2018-07-31T22:43:37.883Z,25.10
2018-07-31T22:46:07.730Z,25.10
2018-07-31T22:48:37.002Z,25.20
2018-07-31T22:51:06.845Z,25.20
2018-07-31T22:53:36.091Z,25.10
2018-07-31T22:56:06.776Z,25.00
2018-07-31T22:58:35.986Z,25.00
2018-07-31T23:01:05.337Z,24.90
2018-07-31T23:06:03.502Z,24.80
2018-07-31T23:08:32.707Z,24.80
2018-07-31T23:11:01.984Z,24.80
2018-07-31T23:13:31.177Z,24.80
2018-07-31T23:16:00.773Z,24.80
2018-07-31T23:18:30.033Z,24.80
2018-07-31T23:20:59.307Z,24.90
2018-07-31T23:23:30.275Z,24.90
2018-07-31T23:26:00.321Z,24.90
2018-07-31T23:28:30.932Z,24.90
2018-07-31T23:31:00.084Z,24.90
2018-07-31T23:33:29.953Z,24.90
2018-07-31T23:35:59.716Z,24.90
2018-07-31T23:38:28.993Z,25.00
2018-07-31T23:40:58.312Z,24.90
2018-07-31T23:43:27.725Z,24.80
2018-07-31T23:45:57.553Z,24.80
2018-07-31T23:48:27.641Z,24.80
2018-07-31T23:50:57.753Z,24.80
2018-07-31T23:53:28.378Z,24.80
2018-07-31T23:55:57.585Z,24.90
2018-07-31T23:58:26.837Z,24.90
